createdAt,value
2022-12-24T00:01:37.969Z,99778.48
2022-12-24T00:04:06.738Z,99781.70
2022-12-24T00:06:35.657Z,99785.41
2022-12-24T00:09:04.252Z,99785.41
2022-12-24T00:11:34.070Z,99779.16
2022-12-24T00:14:02.803Z,99771.55
2022-12-24T00:16:31.525Z,99773.41
2022-12-24T00:19:00.392Z,99775.27
2022-12-24T00:21:29.407Z,99770.02
2022-12-24T00:23:58.753Z,99774.74
2022-12-24T00:26:28.108Z,99775.08
2022-12-24T00:28:57.239Z,99776.25
2022-12-24T00:31:27.648Z,99776.76
2022-12-24T00:33:56.846Z,99776.42
2022-12-24T00:36:25.589Z,99772.02
2022-12-24T00:38:54.623Z,99768.29
2022-12-24T00:41:28.133Z,99771.33
2022-12-24T00:44:02.410Z,99762.36
2022-12-24T00:46:32.361Z,99764.73
2022-12-24T00:49:01.401Z,99759.48
2022-12-24T00:51:30.401Z,99755.43
2022-12-24T00:53:59.320Z,99752.05
2022-12-24T00:56:28.622Z,99748.31
2022-12-24T00:58:57.083Z,99758.97
2022-12-24T01:01:26.030Z,99752.88
2022-12-24T01:03:59.602Z,99759.30
2022-12-24T01:06:29.971Z,99757.78
2022-12-24T01:08:58.504Z,99754.06
2022-12-24T01:11:26.995Z,99757.80
2022-12-24T01:13:56.957Z,99757.97
2022-12-24T01:16:26.209Z,99758.48
2022-12-24T01:18:55.028Z,99758.32
2022-12-24T01:21:25.655Z,99762.72
2022-12-24T01:23:54.820Z,99765.94
2022-12-24T01:26:23.847Z,99768.62
2022-12-24T01:28:52.954Z,99768.12
2022-12-24T01:31:22.597Z,99768.46
2022-12-24T01:33:51.250Z,99768.80
2022-12-24T01:36:20.402Z,99777.77
2022-12-24T01:38:49.747Z,99768.64
2022-12-24T01:41:40.416Z,99761.88
2022-12-24T01:44:33.494Z,99755.80
2022-12-24T01:47:10.516Z,99751.06
2022-12-24T01:49:43.756Z,99750.05
2022-12-24T01:52:23.203Z,99753.77
2022-12-24T01:54:55.527Z,99741.94
2022-12-24T01:57:28.704Z,99748.70
2022-12-24T02:00:00.926Z,99745.15
2022-12-24T02:02:30.615Z,99746.84
2022-12-24T02:05:06.804Z,99732.46
2022-12-24T02:07:35.407Z,99736.35
2022-12-24T02:10:08.236Z,99728.74
2022-12-24T02:12:37.200Z,99736.19
2022-12-24T02:15:07.417Z,99729.77
2022-12-24T02:17:53.197Z,99733.31
2022-12-24T02:20:52.940Z,99736.20
2022-12-24T02:23:48.212Z,99731.12
2022-12-24T02:26:31.226Z,99730.98
2022-12-24T02:29:23.301Z,99731.97
2022-12-24T02:32:07.794Z,99731.28
2022-12-24T02:34:52.109Z,99731.45
2022-12-24T02:37:27.741Z,99732.46
2022-12-24T02:40:03.476Z,99725.02
2022-12-24T02:42:40.835Z,99727.72
2022-12-24T02:45:13.649Z,99725.36
2022-12-24T02:47:42.670Z,99727.72
2022-12-24T02:50:14.269Z,99719.60
2022-12-24T02:52:44.840Z,99720.95
2022-12-24T02:55:24.751Z,99719.27
2022-12-24T02:58:24.442Z,99722.65
2022-12-24T03:01:17.152Z,99718.25
2022-12-24T03:04:00.784Z,99721.63
2022-12-24T03:06:56.233Z,99725.86
2022-12-24T03:09:30.416Z,99729.41
2022-12-24T03:12:06.468Z,99718.41
2022-12-24T03:14:35.781Z,99718.58
2022-12-24T03:17:04.768Z,99719.42
2022-12-24T03:19:33.864Z,99718.23
2022-12-24T03:22:04.535Z,99712.65
2022-12-24T03:24:33.058Z,99719.08
2022-12-24T03:27:01.797Z,99717.22
2022-12-24T03:29:30.344Z,99717.55
2022-12-24T03:32:02.718Z,99712.14
2022-12-24T03:34:33.275Z,99715.86
2022-12-24T03:37:02.019Z,99716.38
2022-12-24T03:39:30.541Z,99717.39
2022-12-24T03:41:59.785Z,99715.53
2022-12-24T03:44:28.673Z,99710.80
2022-12-24T03:46:57.632Z,99711.14
2022-12-24T03:49:26.612Z,99706.06
2022-12-24T03:51:55.092Z,99707.77
2022-12-24T03:54:23.541Z,99708.77
2022-12-24T03:56:51.944Z,99707.08
2022-12-24T03:59:21.022Z,99708.09
2022-12-24T04:01:50.250Z,99701.66
2022-12-24T04:04:19.135Z,99707.58
2022-12-24T04:06:47.704Z,99710.96
2022-12-24T04:09:16.440Z,99709.27
2022-12-24T04:11:45.371Z,99721.27
2022-12-24T04:14:14.559Z,99724.83
2022-12-24T04:16:43.417Z,99718.91
2022-12-24T04:19:12.811Z,99724.66
2022-12-24T04:21:41.676Z,99714.69
2022-12-24T04:24:10.169Z,99710.12
2022-12-24T04:26:39.563Z,99709.10
2022-12-24T04:29:08.092Z,99702.17
2022-12-24T04:31:37.582Z,99712.83
2022-12-24T04:34:06.350Z,99715.20
2022-12-24T04:36:35.657Z,99714.19
2022-12-24T04:39:04.231Z,99709.80
2022-12-24T04:41:32.837Z,99705.06
2022-12-24T04:44:01.517Z,99710.14
2022-12-24T04:46:30.990Z,99705.77
2022-12-24T04:49:00.235Z,99706.11
2022-12-24T04:51:30.432Z,99706.80
2022-12-24T04:53:59.063Z,99703.75
2022-12-24T04:56:30.229Z,99701.89
2022-12-24T04:59:01.745Z,99712.05
2022-12-24T05:01:32.395Z,99698.00
2022-12-24T05:04:00.885Z,99696.13
2022-12-24T05:06:31.570Z,99703.24
2022-12-24T05:09:00.523Z,99705.44
2022-12-24T05:11:29.561Z,99704.42
2022-12-24T05:13:58.445Z,99699.34
2022-12-24T05:16:27.392Z,99693.94
2022-12-24T05:18:56.199Z,99691.40
2022-12-24T05:21:24.798Z,99702.39
2022-12-24T05:24:12.305Z,99702.05
2022-12-24T05:26:56.316Z,99704.59
2022-12-24T05:29:25.247Z,99714.91
2022-12-24T05:31:54.625Z,99713.22
2022-12-24T05:34:23.241Z,99714.23
2022-12-24T05:36:52.076Z,99710.34
2022-12-24T05:39:21.158Z,99706.45
2022-12-24T05:41:49.767Z,99707.81
2022-12-24T05:44:18.390Z,99706.97
2022-12-24T05:46:48.723Z,99710.86
2022-12-24T05:49:17.312Z,99712.55
2022-12-24T05:51:46.077Z,99713.73
2022-12-24T05:54:14.992Z,99710.69
2022-12-24T05:56:43.534Z,99722.02
2022-12-24T05:59:13.277Z,99716.10
2022-12-24T06:01:43.839Z,99727.78
2022-12-24T06:04:12.888Z,99728.96
2022-12-24T06:06:43.245Z,99730.83
2022-12-24T06:09:11.947Z,99736.08
2022-12-24T06:11:40.675Z,99739.46
2022-12-24T06:14:10.208Z,99748.43
2022-12-24T06:16:39.106Z,99740.14
2022-12-24T06:19:07.777Z,99741.83
2022-12-24T06:21:36.645Z,99744.03
2022-12-24T06:24:06.176Z,99739.97
2022-12-24T06:26:35.290Z,99742.67
2022-12-24T06:29:03.745Z,99747.08
2022-12-24T06:31:33.487Z,99744.03
2022-12-24T06:34:02.448Z,99740.14
2022-12-24T06:36:31.095Z,99741.83
2022-12-24T06:39:00.226Z,99746.41
2022-12-24T06:41:30.995Z,99739.30
2022-12-24T06:43:59.679Z,99732.35
2022-12-24T06:46:28.361Z,99744.71
2022-12-24T06:48:57.246Z,99739.63
2022-12-24T06:51:26.292Z,99746.41
2022-12-24T06:53:54.895Z,99744.55
2022-12-24T06:56:23.461Z,99741.66
2022-12-24T06:58:52.158Z,99748.95
2022-12-24T07:01:21.364Z,99747.77
2022-12-24T07:03:50.093Z,99751.48
2022-12-24T07:06:27.482Z,99754.88
2022-12-24T07:08:55.641Z,99757.75
2022-12-24T07:11:24.874Z,99756.56
2022-12-24T07:13:53.730Z,99754.20
2022-12-24T07:16:22.595Z,99755.38
2022-12-24T07:18:51.782Z,99758.94
2022-12-24T07:21:22.542Z,99761.14
2022-12-24T07:23:51.141Z,99759.27
2022-12-24T07:26:20.139Z,99764.19
2022-12-24T07:28:48.712Z,99750.80
2022-12-24T07:31:17.771Z,99754.53
2022-12-24T07:33:46.522Z,99754.70
2022-12-24T07:36:20.466Z,99753.54
2022-12-24T07:38:49.742Z,99753.53
2022-12-24T07:41:19.931Z,99747.43
2022-12-24T07:43:48.455Z,99759.45
2022-12-24T07:46:16.987Z,99758.95
2022-12-24T07:48:46.202Z,99759.96
2022-12-24T07:51:14.922Z,99754.88
2022-12-24T07:53:45.614Z,99756.91
2022-12-24T07:56:15.574Z,99749.78
2022-12-24T07:58:44.055Z,99748.42
2022-12-24T08:01:13.339Z,99746.89
2022-12-24T08:03:42.372Z,99742.83
2022-12-24T08:06:11.727Z,99749.44
2022-12-24T08:08:41.096Z,99758.08
2022-12-24T08:11:09.909Z,99749.61
2022-12-24T08:13:39.094Z,99746.05
2022-12-24T08:16:07.941Z,99746.05
2022-12-24T08:18:36.865Z,99745.37
2022-12-24T08:21:08.214Z,99742.14
2022-12-24T08:23:37.354Z,99745.70
2022-12-24T08:26:09.712Z,99740.11
2022-12-24T08:28:39.647Z,99745.19
2022-12-24T08:31:08.831Z,99737.89
2022-12-24T08:33:38.653Z,99733.15
2022-12-24T08:36:08.271Z,99726.36
2022-12-24T08:38:37.280Z,99725.16
2022-12-24T08:41:09.256Z,99729.22
2022-12-24T08:43:38.130Z,99725.30
2022-12-24T08:46:06.774Z,99733.93
2022-12-24T08:48:36.518Z,99732.73
2022-12-24T08:51:12.186Z,99727.97
2022-12-24T08:53:43.597Z,99729.00
2022-12-24T08:56:12.297Z,99722.38
2022-12-24T08:58:41.136Z,99719.84
2022-12-24T09:01:16.101Z,99718.13
2022-12-24T09:03:46.627Z,99716.78
2022-12-24T09:06:15.839Z,99722.19
2022-12-24T09:08:44.960Z,99728.11
2022-12-24T09:11:16.250Z,99729.95
2022-12-24T09:13:45.290Z,99730.95
2022-12-24T09:16:15.620Z,99735.70
2022-12-24T09:18:45.699Z,99732.30
2022-12-24T09:21:16.132Z,99733.63
2022-12-24T09:23:47.381Z,99734.63
2022-12-24T09:26:20.215Z,99731.56
2022-12-24T09:28:49.648Z,99724.06
2022-12-24T09:31:21.362Z,99728.12
2022-12-24T09:33:50.910Z,99728.78
2022-12-24T09:36:19.971Z,99734.03
2022-12-24T09:38:49.282Z,99732.16
2022-12-24T09:41:43.242Z,99735.22
2022-12-24T09:44:27.063Z,99731.47
2022-12-24T09:46:57.099Z,99726.71
2022-12-24T09:49:29.015Z,99728.06
2022-12-24T09:52:01.671Z,99729.58
2022-12-24T09:54:49.881Z,99727.87
2022-12-24T09:57:23.043Z,99732.27
2022-12-24T09:59:52.185Z,99727.53
2022-12-24T10:02:21.065Z,99731.60
2022-12-24T10:04:50.324Z,99728.20
2022-12-24T10:07:39.430Z,99731.76
2022-12-24T10:10:33.335Z,99727.51
2022-12-24T10:13:13.554Z,99745.16
2022-12-24T10:16:09.307Z,99748.21
2022-12-24T10:18:55.623Z,99741.75
2022-12-24T10:21:41.819Z,99742.08
2022-12-24T10:24:51.022Z,99741.94
2022-12-24T10:27:21.775Z,99743.63
2022-12-24T10:30:02.020Z,99752.61
2022-12-24T10:32:33.739Z,99752.09
2022-12-24T10:35:22.791Z,99750.08
2022-12-24T10:37:52.626Z,99748.54
2022-12-24T10:40:44.611Z,99750.74
2022-12-24T10:43:19.660Z,99752.28
2022-12-24T10:45:51.597Z,99756.35
2022-12-24T10:48:42.363Z,99756.53
2022-12-24T10:51:31.101Z,99755.35
2022-12-24T10:54:04.360Z,99753.81
2022-12-24T10:56:35.450Z,99747.69
2022-12-24T10:59:04.395Z,99751.59
2022-12-24T11:01:48.885Z,99763.30
2022-12-24T11:04:27.916Z,99763.99
2022-12-24T11:07:05.429Z,99758.05
2022-12-24T11:09:36.802Z,99762.09
2022-12-24T11:12:09.199Z,99757.52
2022-12-24T11:14:39.736Z,99757.54
2022-12-24T11:17:10.081Z,99753.45
2022-12-24T11:19:39.708Z,99745.64
2022-12-24T11:22:25.970Z,99753.98
2022-12-24T11:25:02.099Z,99756.67
2022-12-24T11:27:46.006Z,99763.61
2022-12-24T11:30:21.295Z,99756.97
2022-12-24T11:32:55.115Z,99764.09
2022-12-24T11:35:24.272Z,99770.70
2022-12-24T11:38:07.405Z,99774.60
2022-12-24T11:40:42.731Z,99766.45
2022-12-24T11:43:19.320Z,99765.25
2022-12-24T11:45:54.868Z,99766.61
2022-12-24T11:48:33.004Z,99763.73
2022-12-24T11:51:04.377Z,99760.15
2022-12-24T11:54:02.192Z,99765.42
2022-12-24T11:56:40.562Z,99766.78
2022-12-24T11:59:17.843Z,99767.97
2022-12-24T12:01:58.595Z,99766.61
2022-12-24T12:04:33.968Z,99766.94
2022-12-24T12:07:17.174Z,99764.91
2022-12-24T12:09:52.117Z,99764.22
2022-12-24T12:12:30.887Z,99763.17
2022-12-24T12:15:04.743Z,99761.81
2022-12-24T12:17:48.154Z,99769.12
2022-12-24T12:20:36.644Z,99776.58
2022-12-24T12:23:19.156Z,99780.65
2022-12-24T12:26:00.597Z,99774.88
2022-12-24T12:28:37.692Z,99780.65
2022-12-24T12:31:16.515Z,99767.58
2022-12-24T12:34:18.320Z,99776.91
2022-12-24T12:37:03.840Z,99781.49
2022-12-24T12:39:33.228Z,99784.21
2022-12-24T12:42:35.812Z,99789.98
2022-12-24T12:45:35.629Z,99780.28
2022-12-24T12:48:30.678Z,99781.80
2022-12-24T12:51:09.445Z,99787.56
2022-12-24T12:54:11.084Z,99783.85
2022-12-24T12:56:40.424Z,99781.49
2022-12-24T12:59:21.111Z,99784.03
2022-12-24T13:02:10.826Z,99788.28
2022-12-24T13:05:15.341Z,99801.02
2022-12-24T13:08:27.524Z,99802.38
2022-12-24T13:11:04.621Z,99809.69
2022-12-24T13:13:51.591Z,99796.64
2022-12-24T13:16:59.626Z,99802.08
2022-12-24T13:19:39.524Z,99807.36
2022-12-24T13:22:17.232Z,99809.25
2022-12-24T13:24:54.342Z,99807.73
2022-12-24T13:27:33.850Z,99805.71
2022-12-24T13:30:35.854Z,99805.04
2022-12-24T13:33:05.711Z,99810.31
2022-12-24T13:35:38.219Z,99811.67
2022-12-24T13:38:31.619Z,99808.45
2022-12-24T13:41:39.327Z,99813.70
2022-12-24T13:44:20.372Z,99807.76
2022-12-24T13:47:07.555Z,99808.61
2022-12-24T13:49:44.975Z,99814.34
2022-12-24T13:52:18.528Z,99822.65
2022-12-24T13:55:01.502Z,99825.03
2022-12-24T13:57:47.936Z,99827.75
2022-12-24T14:00:42.672Z,99824.55
2022-12-24T14:03:22.880Z,99827.77
2022-12-24T14:05:58.751Z,99837.79
2022-12-24T14:08:43.739Z,99844.42
2022-12-24T14:11:20.396Z,99849.54
2022-12-24T14:13:53.653Z,99857.67
2022-12-24T14:16:28.038Z,99860.23
2022-12-24T14:19:05.866Z,99862.78
2022-12-24T14:21:38.490Z,99874.83
2022-12-24T14:24:25.245Z,99866.19
2022-12-24T14:26:59.311Z,99867.73
2022-12-24T14:29:33.984Z,99868.42
2022-12-24T14:32:06.203Z,99877.75
2022-12-24T14:34:36.943Z,99869.61
2022-12-24T14:37:06.559Z,99872.48
2022-12-24T14:39:39.280Z,99875.86
2022-12-24T14:42:31.583Z,99875.20
2022-12-24T14:45:17.799Z,99880.80
2022-12-24T14:47:55.394Z,99888.27
2022-12-24T14:50:42.051Z,99896.08
2022-12-24T14:53:44.235Z,99900.14
2022-12-24T14:56:22.205Z,99904.53
2022-12-24T14:58:52.225Z,99901.66
2022-12-24T15:01:29.313Z,99909.64
2022-12-24T15:04:14.047Z,99904.73
2022-12-24T15:06:50.274Z,99906.95
2022-12-24T15:09:29.040Z,99910.36
2022-12-24T15:12:00.633Z,99917.50
2022-12-24T15:14:30.382Z,99921.23
2022-12-24T15:17:04.373Z,99918.53
2022-12-24T15:19:36.926Z,99922.10
2022-12-24T15:22:13.115Z,99921.77
2022-12-24T15:24:47.843Z,99918.21
2022-12-24T15:27:21.012Z,99916.01
2022-12-24T15:29:52.943Z,99923.13
2022-12-24T15:32:21.542Z,99916.68
2022-12-24T15:34:54.632Z,99919.56
2022-12-24T15:37:28.141Z,99919.91
2022-12-24T15:40:10.691Z,99922.30
2022-12-24T15:42:43.851Z,99918.23
2022-12-24T15:45:31.394Z,99922.63
2022-12-24T15:48:04.205Z,99921.95
2022-12-24T15:50:38.578Z,99921.42
2022-12-24T15:53:20.252Z,99920.40
2022-12-24T15:55:42.518Z,99924.33
2022-12-24T15:58:25.240Z,99925.32
2022-12-24T16:01:17.762Z,99919.56
2022-12-24T16:03:56.644Z,99921.59
2022-12-24T16:06:25.387Z,99926.00
2022-12-24T16:08:55.713Z,99922.61
2022-12-24T16:11:35.713Z,99925.50
2022-12-24T16:14:18.672Z,99927.53
2022-12-24T16:16:48.372Z,99924.14
2022-12-24T16:19:23.328Z,99921.77
2022-12-24T16:22:06.875Z,99926.52
2022-12-24T16:24:35.764Z,99927.36
2022-12-24T16:27:10.047Z,99940.41
2022-12-24T16:29:38.933Z,99933.46
2022-12-24T16:32:17.341Z,99938.55
2022-12-24T16:34:46.103Z,99945.15
2022-12-24T16:37:14.591Z,99938.88
2022-12-24T16:39:43.392Z,99946.16
2022-12-24T16:42:30.387Z,99950.56
2022-12-24T16:44:59.187Z,99957.52
2022-12-24T16:47:32.407Z,99958.53
2022-12-24T16:50:02.793Z,99956.84
2022-12-24T16:52:33.456Z,99958.88
2022-12-24T16:55:02.425Z,99959.21
2022-12-24T16:57:33.163Z,99961.75
2022-12-24T17:00:06.065Z,99958.53
2022-12-24T17:02:36.776Z,99958.88
2022-12-24T17:05:08.328Z,99955.66
2022-12-24T17:07:42.949Z,99960.23
2022-12-24T17:10:10.709Z,99964.47
2022-12-24T17:12:39.497Z,99959.05
2022-12-24T17:15:10.579Z,99958.20
2022-12-24T17:17:39.940Z,99961.25
2022-12-24T17:20:09.661Z,99963.46
2022-12-24T17:22:38.362Z,99968.04
2022-12-24T17:25:08.864Z,99970.41
2022-12-24T17:27:38.281Z,99966.68
2022-12-24T17:30:08.455Z,99960.75
2022-12-24T17:32:37.064Z,99959.73
2022-12-24T17:35:07.271Z,99955.33
2022-12-24T17:37:35.924Z,99952.45
2022-12-24T17:40:06.577Z,99952.28
2022-12-24T17:42:37.064Z,99959.73
2022-12-24T17:45:07.513Z,99967.70
2022-12-24T17:47:36.008Z,99975.84
2022-12-24T17:50:07.145Z,99975.33
2022-12-24T17:52:35.864Z,99979.91
2022-12-24T17:55:06.441Z,99983.30
2022-12-24T17:57:35.867Z,99990.08
2022-12-24T18:00:07.568Z,99994.98
2022-12-24T18:02:36.926Z,99990.41
2022-12-24T18:05:07.292Z,99988.03
2022-12-24T18:07:36.261Z,99996.50
2022-12-24T18:10:05.653Z,99993.44
2022-12-24T18:12:34.341Z,99992.76
2022-12-24T18:15:02.882Z,99995.30
2022-12-24T18:17:31.772Z,99997.16
2022-12-24T18:20:00.561Z,99993.59
2022-12-24T18:22:29.151Z,99995.95
2022-12-24T18:24:58.036Z,100000.36
2022-12-24T18:27:26.557Z,100006.63
2022-12-24T18:29:55.180Z,99998.84
2022-12-24T18:32:23.712Z,100013.08
2022-12-24T18:34:52.227Z,100011.73
2022-12-24T18:37:20.915Z,100013.59
2022-12-24T18:39:50.647Z,100015.79
2022-12-24T18:42:19.319Z,100020.88
2022-12-24T18:44:48.164Z,100025.95
2022-12-24T18:47:17.140Z,100026.63
2022-12-24T18:49:46.002Z,100033.56
2022-12-24T18:52:20.803Z,100035.59
2022-12-24T18:54:50.218Z,100039.16
2022-12-24T18:57:18.757Z,100046.59
2022-12-24T18:59:47.593Z,100039.98
2022-12-24T19:02:16.472Z,100052.36
2022-12-24T19:04:45.780Z,100044.06
2022-12-24T19:07:14.808Z,100055.09
2022-12-24T19:09:45.591Z,100050.34
2022-12-24T19:12:14.771Z,100050.34
2022-12-24T19:14:43.662Z,100058.14
2022-12-24T19:17:12.306Z,100058.66
2022-12-24T19:19:41.922Z,100063.41
2022-12-24T19:22:10.601Z,100066.30
2022-12-24T19:24:39.651Z,100060.87
2022-12-24T19:27:08.222Z,100071.55
2022-12-24T19:29:36.899Z,100071.37
2022-12-24T19:32:06.284Z,100076.10
2022-12-24T19:34:35.079Z,100075.77
2022-12-24T19:37:09.263Z,100080.17
2022-12-24T19:39:38.182Z,100087.13
2022-12-24T19:42:07.603Z,100087.63
2022-12-24T19:44:37.988Z,100092.20
2022-12-24T19:47:06.672Z,100087.96
2022-12-24T19:49:36.500Z,100091.69
2022-12-24T19:52:05.607Z,100099.31
2022-12-24T19:54:35.319Z,100098.14
2022-12-24T19:57:04.182Z,100097.28
2022-12-24T19:59:35.338Z,100099.15
2022-12-24T20:02:04.427Z,100098.14
2022-12-24T20:04:33.852Z,100101.35
2022-12-24T20:07:02.981Z,100103.21
2022-12-24T20:09:33.795Z,100109.99
2022-12-24T20:12:02.379Z,100115.59
2022-12-24T20:14:32.219Z,100123.38
2022-12-24T20:17:01.285Z,100120.48
2022-12-24T20:19:30.723Z,100123.88
2022-12-24T20:21:59.256Z,100119.79
2022-12-24T20:24:28.246Z,100123.51
2022-12-24T20:26:56.867Z,100121.98
2022-12-24T20:29:25.354Z,100125.05
2022-12-24T20:31:54.174Z,100122.84
2022-12-24T20:34:24.672Z,100123.34
2022-12-24T20:36:54.548Z,100131.80
2022-12-24T20:39:23.439Z,100130.77
2022-12-24T20:41:53.094Z,100132.63
2022-12-24T20:44:21.817Z,100131.63
2022-12-24T20:46:51.257Z,100130.61
2022-12-24T20:49:19.747Z,100133.83
2022-12-24T20:51:48.410Z,100135.02
2022-12-24T20:54:20.600Z,100136.05
2022-12-24T20:56:58.564Z,100137.22
2022-12-24T20:59:20.955Z,100141.80
2022-12-24T21:01:49.469Z,100143.31
2022-12-24T21:04:18.253Z,100148.58
2022-12-24T21:06:49.148Z,100147.56
2022-12-24T21:09:18.332Z,100146.89
2022-12-24T21:11:49.802Z,100148.06
2022-12-24T21:14:21.630Z,100152.13
2022-12-24T21:16:52.453Z,100154.34
2022-12-24T21:19:24.197Z,100150.27
2022-12-24T21:21:53.380Z,100157.39
2022-12-24T21:24:22.485Z,100159.09
2022-12-24T21:26:51.288Z,100151.81
2022-12-24T21:29:20.129Z,100156.22
2022-12-24T21:31:49.055Z,100158.77
2022-12-24T21:34:18.020Z,100168.94
2022-12-24T21:36:47.003Z,100163.18
2022-12-24T21:39:16.607Z,100161.66
2022-12-24T21:41:45.195Z,100167.08
2022-12-24T21:44:14.127Z,100163.52
2022-12-24T21:46:43.971Z,100164.88
2022-12-24T21:49:31.637Z,100169.13
2022-12-24T21:52:01.601Z,100165.06
2022-12-24T21:54:31.234Z,100168.44
2022-12-24T21:57:24.231Z,100166.39
2022-12-24T21:59:59.305Z,100170.97
2022-12-24T22:02:28.902Z,100166.88
2022-12-24T22:04:58.252Z,100167.57
2022-12-24T22:07:46.605Z,100162.84
2022-12-24T22:10:34.409Z,100163.34
2022-12-24T22:13:07.730Z,100160.47
2022-12-24T22:15:38.910Z,100159.80
2022-12-24T22:18:08.085Z,100161.50
2022-12-24T22:20:37.394Z,100154.88
2022-12-24T22:23:06.149Z,100163.02
2022-12-24T22:25:35.270Z,100165.22
2022-12-24T22:28:04.004Z,100172.18
2022-12-24T22:30:32.510Z,100173.36
2022-12-24T22:33:01.292Z,100181.14
2022-12-24T22:35:30.653Z,100185.53
2022-12-24T22:38:00.616Z,100182.82
2022-12-24T22:40:30.224Z,100191.14
2022-12-24T22:42:58.840Z,100197.59
2022-12-24T22:45:27.543Z,100204.55
2022-12-24T22:47:56.152Z,100198.95
2022-12-24T22:50:24.856Z,100205.89
2022-12-24T22:52:53.586Z,100203.84
2022-12-24T22:55:24.313Z,100210.46
2022-12-24T22:57:53.871Z,100208.94
2022-12-24T23:00:42.934Z,100217.42
2022-12-24T23:03:11.966Z,100218.27
2022-12-24T23:05:40.733Z,100214.37
2022-12-24T23:08:09.658Z,100217.08
2022-12-24T23:10:38.666Z,100214.69
2022-12-24T23:13:25.700Z,100219.09
2022-12-24T23:15:54.323Z,100223.51
2022-12-24T23:18:23.399Z,100230.47
2022-12-24T23:20:53.738Z,100226.41
2022-12-24T23:23:22.308Z,100230.81
2022-12-24T23:25:51.607Z,100226.73
2022-12-24T23:28:20.297Z,100228.91
2022-12-24T23:30:58.585Z,100225.84
2022-12-24T23:33:27.682Z,100236.00
2022-12-24T23:35:56.376Z,100232.95
2022-12-24T23:38:25.831Z,100234.65
2022-12-24T23:41:03.808Z,100236.00
2022-12-24T23:43:33.476Z,100241.08
2022-12-24T23:46:02.825Z,100243.63
2022-12-24T23:48:31.676Z,100249.21
2022-12-24T23:51:08.558Z,100253.12
2022-12-24T23:53:37.394Z,100254.31
2022-12-24T23:56:06.226Z,100265.16
2022-12-24T23:58:35.226Z,100261.44
